sensor_id;sensor_type;location;lat;lon;timestamp;P1;durP1;ratioP1;P2;durP2;ratioP2
36445;SDS011;22472;50.848;-1.216;2023-12-20T00:01:27;12.13;;;1.95;;
36445;SDS011;22472;50.848;-1.216;2023-12-20T00:03:54;12.77;;;1.90;;
36445;SDS011;22472;50.848;-1.216;2023-12-20T00:06:22;13.60;;;2.30;;
36445;SDS011;22472;50.848;-1.216;2023-12-20T00:08:49;12.90;;;1.85;;
36445;SDS011;22472;50.848;-1.216;2023-12-20T00:11:16;20.08;;;2.13;;
36445;SDS011;22472;50.848;-1.216;2023-12-20T00:13:44;19.00;;;2.05;;
36445;SDS011;22472;50.848;-1.216;2023-12-20T00:16:12;14.57;;;1.80;;
36445;SDS011;22472;50.848;-1.216;2023-12-20T00:18:39;12.88;;;1.75;;
36445;SDS011;22472;50.848;-1.216;2023-12-20T00:21:07;14.45;;;1.60;;
36445;SDS011;22472;50.848;-1.216;2023-12-20T00:23:34;13.77;;;1.60;;
36445;SDS011;22472;50.848;-1.216;2023-12-20T00:26:01;15.00;;;1.77;;
36445;SDS011;22472;50.848;-1.216;2023-12-20T00:28:28;16.63;;;2.10;;
36445;SDS011;22472;50.848;-1.216;2023-12-20T00:30:56;13.35;;;1.67;;
36445;SDS011;22472;50.848;-1.216;2023-12-20T00:33:24;12.23;;;1.70;;
36445;SDS011;22472;50.848;-1.216;2023-12-20T00:35:51;15.55;;;1.88;;
36445;SDS011;22472;50.848;-1.216;2023-12-20T00:38:19;10.95;;;1.50;;
36445;SDS011;22472;50.848;-1.216;2023-12-20T00:40:46;9.90;;;1.40;;
36445;SDS011;22472;50.848;-1.216;2023-12-20T00:43:14;14.15;;;1.63;;
36445;SDS011;22472;50.848;-1.216;2023-12-20T00:45:42;13.27;;;1.67;;
36445;SDS011;22472;50.848;-1.216;2023-12-20T00:48:12;11.83;;;1.33;;
36445;SDS011;22472;50.848;-1.216;2023-12-20T00:50:40;12.13;;;1.85;;
36445;SDS011;22472;50.848;-1.216;2023-12-20T00:53:08;11.48;;;1.60;;
36445;SDS011;22472;50.848;-1.216;2023-12-20T00:55:35;12.00;;;2.25;;
36445;SDS011;22472;50.848;-1.216;2023-12-20T00:58:02;16.83;;;1.70;;
36445;SDS011;22472;50.848;-1.216;2023-12-20T01:00:30;13.93;;;1.90;;
36445;SDS011;22472;50.848;-1.216;2023-12-20T01:02:57;19.08;;;2.05;;
36445;SDS011;22472;50.848;-1.216;2023-12-20T01:05:24;13.45;;;1.77;;
36445;SDS011;22472;50.848;-1.216;2023-12-20T01:07:53;17.02;;;1.90;;
36445;SDS011;22472;50.848;-1.216;2023-12-20T01:10:20;17.00;;;1.80;;
36445;SDS011;22472;50.848;-1.216;2023-12-20T01:12:48;18.15;;;1.92;;
36445;SDS011;22472;50.848;-1.216;2023-12-20T01:15:15;19.00;;;2.35;;
36445;SDS011;22472;50.848;-1.216;2023-12-20T01:17:42;15.55;;;1.67;;
36445;SDS011;22472;50.848;-1.216;2023-12-20T01:20:09;15.70;;;2.05;;
36445;SDS011;22472;50.848;-1.216;2023-12-20T01:22:37;12.10;;;2.00;;
36445;SDS011;22472;50.848;-1.216;2023-12-20T01:25:06;14.63;;;1.92;;
36445;SDS011;22472;50.848;-1.216;2023-12-20T01:27:33;17.02;;;2.08;;
36445;SDS011;22472;50.848;-1.216;2023-12-20T01:30:00;11.55;;;2.00;;
36445;SDS011;22472;50.848;-1.216;2023-12-20T01:32:28;16.65;;;2.20;;
36445;SDS011;22472;50.848;-1.216;2023-12-20T01:34:55;17.95;;;2.33;;
36445;SDS011;22472;50.848;-1.216;2023-12-20T01:37:22;18.98;;;2.33;;
36445;SDS011;22472;50.848;-1.216;2023-12-20T01:39:50;16.33;;;2.22;;
36445;SDS011;22472;50.848;-1.216;2023-12-20T01:42:19;12.65;;;1.70;;
36445;SDS011;22472;50.848;-1.216;2023-12-20T01:44:47;16.92;;;2.42;;
36445;SDS011;22472;50.848;-1.216;2023-12-20T01:47:14;16.63;;;2.08;;
36445;SDS011;22472;50.848;-1.216;2023-12-20T01:49:41;18.08;;;2.22;;
36445;SDS011;22472;50.848;-1.216;2023-12-20T01:52:08;18.40;;;2.20;;
36445;SDS011;22472;50.848;-1.216;2023-12-20T01:54:36;17.60;;;1.95;;
36445;SDS011;22472;50.848;-1.216;2023-12-20T01:57:04;16.92;;;2.17;;
36445;SDS011;22472;50.848;-1.216;2023-12-20T01:59:33;15.13;;;1.80;;
36445;SDS011;22472;50.848;-1.216;2023-12-20T02:02:01;18.52;;;1.98;;
36445;SDS011;22472;50.848;-1.216;2023-12-20T02:04:29;18.45;;;2.28;;
36445;SDS011;22472;50.848;-1.216;2023-12-20T02:06:57;17.45;;;1.95;;
36445;SDS011;22472;50.848;-1.216;2023-12-20T02:09:24;17.13;;;1.90;;
36445;SDS011;22472;50.848;-1.216;2023-12-20T02:11:51;14.70;;;1.70;;
36445;SDS011;22472;50.848;-1.216;2023-12-20T02:14:19;19.50;;;1.80;;
36445;SDS011;22472;50.848;-1.216;2023-12-20T02:16:47;20.98;;;2.38;;
36445;SDS011;22472;50.848;-1.216;2023-12-20T02:19:15;14.75;;;2.28;;
36445;SDS011;22472;50.848;-1.216;2023-12-20T02:21:43;19.38;;;2.20;;
36445;SDS011;22472;50.848;-1.216;2023-12-20T02:24:11;17.75;;;2.10;;
36445;SDS011;22472;50.848;-1.216;2023-12-20T02:26:38;15.13;;;1.65;;
36445;SDS011;22472;50.848;-1.216;2023-12-20T02:29:05;18.52;;;2.28;;
36445;SDS011;22472;50.848;-1.216;2023-12-20T02:31:32;20.25;;;2.20;;
36445;SDS011;22472;50.848;-1.216;2023-12-20T02:33:59;19.08;;;1.52;;
36445;SDS011;22472;50.848;-1.216;2023-12-20T02:36:27;17.85;;;2.20;;
36445;SDS011;22472;50.848;-1.216;2023-12-20T02:38:55;17.58;;;2.10;;
36445;SDS011;22472;50.848;-1.216;2023-12-20T02:41:23;24.67;;;2.28;;
36445;SDS011;22472;50.848;-1.216;2023-12-20T02:43:50;14.25;;;1.88;;
36445;SDS011;22472;50.848;-1.216;2023-12-20T02:46:17;15.68;;;1.95;;
36445;SDS011;22472;50.848;-1.216;2023-12-20T02:48:45;22.25;;;2.40;;
36445;SDS011;22472;50.848;-1.216;2023-12-20T02:51:13;17.80;;;2.50;;
36445;SDS011;22472;50.848;-1.216;2023-12-20T02:53:40;18.70;;;2.15;;
36445;SDS011;22472;50.848;-1.216;2023-12-20T02:56:09;18.33;;;2.22;;
36445;SDS011;22472;50.848;-1.216;2023-12-20T02:58:36;19.23;;;2.38;;
36445;SDS011;22472;50.848;-1.216;2023-12-20T03:01:03;14.13;;;1.80;;
36445;SDS011;22472;50.848;-1.216;2023-12-20T03:06:34;14.57;;;1.98;;
36445;SDS011;22472;50.848;-1.216;2023-12-20T03:09:01;17.58;;;2.20;;
36445;SDS011;22472;50.848;-1.216;2023-12-20T03:11:30;15.05;;;2.28;;
36445;SDS011;22472;50.848;-1.216;2023-12-20T03:13:57;17.33;;;2.47;;
36445;SDS011;22472;50.848;-1.216;2023-12-20T03:16:24;17.95;;;2.08;;
36445;SDS011;22472;50.848;-1.216;2023-12-20T03:18:52;20.92;;;2.70;;
36445;SDS011;22472;50.848;-1.216;2023-12-20T03:21:19;18.65;;;2.58;;
36445;SDS011;22472;50.848;-1.216;2023-12-20T03:23:46;20.83;;;2.80;;
36445;SDS011;22472;50.848;-1.216;2023-12-20T03:26:13;18.55;;;2.55;;
36445;SDS011;22472;50.848;-1.216;2023-12-20T03:28:42;17.83;;;2.50;;
36445;SDS011;22472;50.848;-1.216;2023-12-20T03:31:09;18.30;;;2.40;;
36445;SDS011;22472;50.848;-1.216;2023-12-20T03:33:55;16.65;;;2.70;;
36445;SDS011;22472;50.848;-1.216;2023-12-20T03:36:23;20.05;;;2.60;;
36445;SDS011;22472;50.848;-1.216;2023-12-20T03:38:50;18.98;;;2.08;;
36445;SDS011;22472;50.848;-1.216;2023-12-20T03:41:17;20.33;;;2.25;;
36445;SDS011;22472;50.848;-1.216;2023-12-20T03:43:46;18.40;;;2.65;;
36445;SDS011;22472;50.848;-1.216;2023-12-20T03:46:13;19.10;;;2.42;;
36445;SDS011;22472;50.848;-1.216;2023-12-20T03:48:40;24.05;;;3.20;;
36445;SDS011;22472;50.848;-1.216;2023-12-20T03:51:07;18.13;;;2.60;;
36445;SDS011;22472;50.848;-1.216;2023-12-20T03:53:35;17.88;;;2.45;;
36445;SDS011;22472;50.848;-1.216;2023-12-20T03:56:02;21.05;;;2.22;;
36445;SDS011;22472;50.848;-1.216;2023-12-20T03:58:29;21.45;;;2.70;;
36445;SDS011;22472;50.848;-1.216;2023-12-20T04:00:58;26.35;;;2.92;;
36445;SDS011;22472;50.848;-1.216;2023-12-20T04:03:25;16.65;;;2.35;;
36445;SDS011;22472;50.848;-1.216;2023-12-20T04:05:52;21.08;;;2.33;;
36445;SDS011;22472;50.848;-1.216;2023-12-20T04:08:20;16.17;;;2.60;;
36445;SDS011;22472;50.848;-1.216;2023-12-20T04:10:47;23.45;;;2.30;;
36445;SDS011;22472;50.848;-1.216;2023-12-20T04:13:14;16.67;;;2.40;;
36445;SDS011;22472;50.848;-1.216;2023-12-20T04:15:41;23.13;;;2.50;;
36445;SDS011;22472;50.848;-1.216;2023-12-20T04:18:10;16.73;;;2.20;;
36445;SDS011;22472;50.848;-1.216;2023-12-20T04:20:37;19.55;;;2.35;;
36445;SDS011;22472;50.848;-1.216;2023-12-20T04:23:04;22.00;;;2.53;;
36445;SDS011;22472;50.848;-1.216;2023-12-20T04:25:32;11.95;;;2.13;;
36445;SDS011;22472;50.848;-1.216;2023-12-20T04:27:59;19.90;;;2.13;;
36445;SDS011;22472;50.848;-1.216;2023-12-20T04:30:26;20.20;;;2.35;;
36445;SDS011;22472;50.848;-1.216;2023-12-20T04:32:53;19.23;;;2.53;;
36445;SDS011;22472;50.848;-1.216;2023-12-20T04:35:22;20.40;;;2.55;;
36445;SDS011;22472;50.848;-1.216;2023-12-20T04:37:49;19.92;;;2.42;;
36445;SDS011;22472;50.848;-1.216;2023-12-20T04:40:16;16.83;;;1.83;;
36445;SDS011;22472;50.848;-1.216;2023-12-20T04:42:43;17.70;;;2.08;;
36445;SDS011;22472;50.848;-1.216;2023-12-20T04:45:11;21.05;;;2.17;;
36445;SDS011;22472;50.848;-1.216;2023-12-20T04:47:41;17.52;;;1.85;;
36445;SDS011;22472;50.848;-1.216;2023-12-20T04:50:08;18.38;;;2.03;;
36445;SDS011;22472;50.848;-1.216;2023-12-20T04:52:38;21.85;;;2.28;;
36445;SDS011;22472;50.848;-1.216;2023-12-20T04:55:05;14.02;;;2.00;;
36445;SDS011;22472;50.848;-1.216;2023-12-20T04:57:33;20.33;;;2.10;;
36445;SDS011;22472;50.848;-1.216;2023-12-20T05:00:01;18.80;;;2.10;;
36445;SDS011;22472;50.848;-1.216;2023-12-20T05:02:28;18.42;;;2.65;;
36445;SDS011;22472;50.848;-1.216;2023-12-20T05:04:55;24.08;;;2.50;;
36445;SDS011;22472;50.848;-1.216;2023-12-20T05:07:22;20.63;;;1.92;;
36445;SDS011;22472;50.848;-1.216;2023-12-20T05:09:51;17.80;;;2.30;;
36445;SDS011;22472;50.848;-1.216;2023-12-20T05:12:18;19.23;;;1.98;;
36445;SDS011;22472;50.848;-1.216;2023-12-20T05:14:45;20.23;;;2.30;;
36445;SDS011;22472;50.848;-1.216;2023-12-20T05:17:13;20.85;;;2.25;;
36445;SDS011;22472;50.848;-1.216;2023-12-20T05:19:40;20.95;;;2.30;;
36445;SDS011;22472;50.848;-1.216;2023-12-20T05:22:07;18.65;;;2.33;;
36445;SDS011;22472;50.848;-1.216;2023-12-20T05:24:34;17.98;;;1.90;;
36445;SDS011;22472;50.848;-1.216;2023-12-20T05:27:03;15.88;;;2.42;;
36445;SDS011;22472;50.848;-1.216;2023-12-20T05:29:30;19.70;;;2.00;;
36445;SDS011;22472;50.848;-1.216;2023-12-20T05:31:58;21.10;;;1.92;;
36445;SDS011;22472;50.848;-1.216;2023-12-20T05:34:25;16.13;;;2.15;;
36445;SDS011;22472;50.848;-1.216;2023-12-20T05:36:52;15.80;;;1.63;;
36445;SDS011;22472;50.848;-1.216;2023-12-20T05:39:19;20.05;;;2.42;;
36445;SDS011;22472;50.848;-1.216;2023-12-20T05:41:46;15.70;;;1.98;;
36445;SDS011;22472;50.848;-1.216;2023-12-20T05:44:15;18.40;;;1.98;;
36445;SDS011;22472;50.848;-1.216;2023-12-20T05:46:42;16.77;;;1.88;;
36445;SDS011;22472;50.848;-1.216;2023-12-20T05:49:09;19.88;;;1.92;;
36445;SDS011;22472;50.848;-1.216;2023-12-20T05:51:37;14.85;;;2.05;;
36445;SDS011;22472;50.848;-1.216;2023-12-20T05:54:04;18.48;;;2.33;;
36445;SDS011;22472;50.848;-1.216;2023-12-20T05:56:31;22.48;;;2.15;;
36445;SDS011;22472;50.848;-1.216;2023-12-20T05:58:58;18.10;;;2.38;;
36445;SDS011;22472;50.848;-1.216;2023-12-20T06:01:27;15.65;;;1.85;;
36445;SDS011;22472;50.848;-1.216;2023-12-20T06:03:54;15.55;;;2.08;;
36445;SDS011;22472;50.848;-1.216;2023-12-20T06:06:21;16.83;;;1.65;;
36445;SDS011;22472;50.848;-1.216;2023-12-20T06:08:48;19.58;;;2.08;;
36445;SDS011;22472;50.848;-1.216;2023-12-20T06:11:16;14.68;;;2.13;;
36445;SDS011;22472;50.848;-1.216;2023-12-20T06:13:43;14.98;;;2.20;;
36445;SDS011;22472;50.848;-1.216;2023-12-20T06:16:10;19.42;;;2.22;;
36445;SDS011;22472;50.848;-1.216;2023-12-20T06:18:39;18.65;;;2.55;;
36445;SDS011;22472;50.848;-1.216;2023-12-20T06:21:07;19.42;;;2.45;;
36445;SDS011;22472;50.848;-1.216;2023-12-20T06:23:37;23.33;;;2.70;;
36445;SDS011;22472;50.848;-1.216;2023-12-20T06:26:05;21.35;;;2.80;;
36445;SDS011;22472;50.848;-1.216;2023-12-20T06:28:32;14.43;;;1.90;;
36445;SDS011;22472;50.848;-1.216;2023-12-20T06:30:59;17.42;;;2.22;;
36445;SDS011;22472;50.848;-1.216;2023-12-20T06:33:26;18.02;;;2.67;;
36445;SDS011;22472;50.848;-1.216;2023-12-20T06:35:55;18.58;;;2.42;;
36445;SDS011;22472;50.848;-1.216;2023-12-20T06:38:22;18.27;;;2.40;;
36445;SDS011;22472;50.848;-1.216;2023-12-20T06:40:50;20.25;;;2.30;;
36445;SDS011;22472;50.848;-1.216;2023-12-20T06:43:17;19.67;;;2.22;;
36445;SDS011;22472;50.848;-1.216;2023-12-20T06:45:44;19.17;;;2.20;;
36445;SDS011;22472;50.848;-1.216;2023-12-20T06:48:11;15.05;;;1.65;;
36445;SDS011;22472;50.848;-1.216;2023-12-20T06:50:39;21.85;;;2.60;;
36445;SDS011;22472;50.848;-1.216;2023-12-20T06:53:07;17.67;;;2.45;;
36445;SDS011;22472;50.848;-1.216;2023-12-20T06:55:34;21.77;;;2.28;;
36445;SDS011;22472;50.848;-1.216;2023-12-20T06:58:03;14.52;;;2.22;;
36445;SDS011;22472;50.848;-1.216;2023-12-20T07:00:30;15.40;;;2.10;;
36445;SDS011;22472;50.848;-1.216;2023-12-20T07:02:57;14.70;;;2.17;;
36445;SDS011;22472;50.848;-1.216;2023-12-20T07:05:24;11.25;;;1.80;;
36445;SDS011;22472;50.848;-1.216;2023-12-20T07:07:52;16.30;;;2.05;;
36445;SDS011;22472;50.848;-1.216;2023-12-20T07:10:20;16.20;;;2.28;;
36445;SDS011;22472;50.848;-1.216;2023-12-20T07:12:47;20.27;;;2.28;;
36445;SDS011;22472;50.848;-1.216;2023-12-20T07:15:16;17.00;;;2.20;;
36445;SDS011;22472;50.848;-1.216;2023-12-20T07:17:43;17.15;;;2.30;;
36445;SDS011;22472;50.848;-1.216;2023-12-20T07:20:11;15.25;;;1.83;;
36445;SDS011;22472;50.848;-1.216;2023-12-20T07:22:38;18.17;;;2.38;;
36445;SDS011;22472;50.848;-1.216;2023-12-20T07:25:06;16.10;;;2.17;;
36445;SDS011;22472;50.848;-1.216;2023-12-20T07:27:34;13.77;;;1.70;;
36445;SDS011;22472;50.848;-1.216;2023-12-20T07:30:02;18.27;;;2.10;;
36445;SDS011;22472;50.848;-1.216;2023-12-20T07:32:29;14.90;;;1.65;;
36445;SDS011;22472;50.848;-1.216;2023-12-20T07:34:57;13.80;;;1.92;;
36445;SDS011;22472;50.848;-1.216;2023-12-20T07:37:24;13.98;;;1.50;;
36445;SDS011;22472;50.848;-1.216;2023-12-20T07:39:52;14.38;;;2.08;;
36445;SDS011;22472;50.848;-1.216;2023-12-20T07:42:19;13.18;;;1.60;;
36445;SDS011;22472;50.848;-1.216;2023-12-20T07:44:48;16.58;;;1.92;;
36445;SDS011;22472;50.848;-1.216;2023-12-20T07:47:15;21.90;;;2.20;;
36445;SDS011;22472;50.848;-1.216;2023-12-20T07:49:46;20.30;;;2.30;;
36445;SDS011;22472;50.848;-1.216;2023-12-20T07:52:13;15.25;;;1.98;;
36445;SDS011;22472;50.848;-1.216;2023-12-20T07:54:41;16.05;;;2.17;;
36445;SDS011;22472;50.848;-1.216;2023-12-20T07:57:08;16.70;;;2.20;;
36445;SDS011;22472;50.848;-1.216;2023-12-20T07:59:35;21.90;;;2.10;;
36445;SDS011;22472;50.848;-1.216;2023-12-20T08:02:04;13.98;;;1.92;;
36445;SDS011;22472;50.848;-1.216;2023-12-20T08:04:31;15.10;;;1.85;;
36445;SDS011;22472;50.848;-1.216;2023-12-20T08:06:58;19.63;;;2.58;;
36445;SDS011;22472;50.848;-1.216;2023-12-20T08:09:26;19.92;;;1.90;;
36445;SDS011;22472;50.848;-1.216;2023-12-20T08:11:53;21.58;;;2.28;;
36445;SDS011;22472;50.848;-1.216;2023-12-20T08:14:21;20.50;;;2.47;;
36445;SDS011;22472;50.848;-1.216;2023-12-20T08:16:48;15.45;;;2.08;;
36445;SDS011;22472;50.848;-1.216;2023-12-20T08:19:16;16.20;;;2.22;;
36445;SDS011;22472;50.848;-1.216;2023-12-20T08:21:44;15.30;;;1.95;;
36445;SDS011;22472;50.848;-1.216;2023-12-20T08:24:11;14.48;;;2.20;;
36445;SDS011;22472;50.848;-1.216;2023-12-20T08:26:38;14.73;;;1.80;;
36445;SDS011;22472;50.848;-1.216;2023-12-20T08:29:05;14.43;;;1.83;;
36445;SDS011;22472;50.848;-1.216;2023-12-20T08:31:32;13.75;;;1.90;;
36445;SDS011;22472;50.848;-1.216;2023-12-20T08:34:00;12.70;;;1.70;;
36445;SDS011;22472;50.848;-1.216;2023-12-20T08:36:28;17.10;;;1.80;;
36445;SDS011;22472;50.848;-1.216;2023-12-20T08:38:55;14.02;;;1.85;;
36445;SDS011;22472;50.848;-1.216;2023-12-20T08:41:23;15.00;;;1.90;;
36445;SDS011;22472;50.848;-1.216;2023-12-20T08:43:50;14.10;;;1.90;;
36445;SDS011;22472;50.848;-1.216;2023-12-20T08:46:17;16.65;;;2.30;;
36445;SDS011;22472;50.848;-1.216;2023-12-20T08:48:44;11.20;;;1.70;;
36445;SDS011;22472;50.848;-1.216;2023-12-20T08:51:12;15.50;;;1.90;;
36445;SDS011;22472;50.848;-1.216;2023-12-20T08:53:41;18.20;;;1.95;;
36445;SDS011;22472;50.848;-1.216;2023-12-20T08:56:10;13.93;;;2.03;;
36445;SDS011;22472;50.848;-1.216;2023-12-20T08:58:37;14.48;;;1.63;;
36445;SDS011;22472;50.848;-1.216;2023-12-20T09:01:04;13.75;;;1.60;;
36445;SDS011;22472;50.848;-1.216;2023-12-20T09:03:32;12.98;;;1.45;;
36445;SDS011;22472;50.848;-1.216;2023-12-20T09:06:00;10.77;;;1.50;;
36445;SDS011;22472;50.848;-1.216;2023-12-20T09:08:27;11.68;;;1.75;;
36445;SDS011;22472;50.848;-1.216;2023-12-20T09:10:56;15.40;;;1.70;;
36445;SDS011;22472;50.848;-1.216;2023-12-20T09:13:23;13.95;;;1.90;;
36445;SDS011;22472;50.848;-1.216;2023-12-20T09:15:53;17.13;;;1.77;;
36445;SDS011;22472;50.848;-1.216;2023-12-20T09:18:20;19.45;;;2.10;;
36445;SDS011;22472;50.848;-1.216;2023-12-20T09:20:47;13.63;;;1.70;;
36445;SDS011;22472;50.848;-1.216;2023-12-20T09:23:15;14.38;;;1.60;;
36445;SDS011;22472;50.848;-1.216;2023-12-20T09:25:43;12.40;;;1.83;;
36445;SDS011;22472;50.848;-1.216;2023-12-20T09:28:12;11.45;;;1.48;;
36445;SDS011;22472;50.848;-1.216;2023-12-20T09:30:39;15.63;;;1.85;;
36445;SDS011;22472;50.848;-1.216;2023-12-20T09:33:06;15.30;;;1.60;;
36445;SDS011;22472;50.848;-1.216;2023-12-20T09:35:34;12.70;;;1.48;;
36445;SDS011;22472;50.848;-1.216;2023-12-20T09:38:01;12.15;;;1.67;;
36445;SDS011;22472;50.848;-1.216;2023-12-20T09:40:28;13.73;;;1.75;;
36445;SDS011;22472;50.848;-1.216;2023-12-20T09:42:56;11.40;;;1.23;;
36445;SDS011;22472;50.848;-1.216;2023-12-20T09:45:25;10.40;;;1.25;;
36445;SDS011;22472;50.848;-1.216;2023-12-20T09:47:53;11.63;;;1.42;;
36445;SDS011;22472;50.848;-1.216;2023-12-20T09:50:20;11.90;;;1.70;;
36445;SDS011;22472;50.848;-1.216;2023-12-20T09:52:49;10.43;;;1.67;;
36445;SDS011;22472;50.848;-1.216;2023-12-20T09:55:17;10.23;;;1.55;;
36445;SDS011;22472;50.848;-1.216;2023-12-20T09:57:44;9.27;;;1.20;;
36445;SDS011;22472;50.848;-1.216;2023-12-20T10:00:12;10.23;;;1.38;;
36445;SDS011;22472;50.848;-1.216;2023-12-20T10:02:42;8.25;;;1.27;;
36445;SDS011;22472;50.848;-1.216;2023-12-20T10:05:13;8.65;;;1.40;;
36445;SDS011;22472;50.848;-1.216;2023-12-20T10:07:44;10.82;;;1.27;;
36445;SDS011;22472;50.848;-1.216;2023-12-20T10:10:11;9.88;;;1.10;;
36445;SDS011;22472;50.848;-1.216;2023-12-20T10:12:39;13.15;;;1.40;;
36445;SDS011;22472;50.848;-1.216;2023-12-20T10:15:07;10.02;;;1.10;;
36445;SDS011;22472;50.848;-1.216;2023-12-20T10:17:35;6.85;;;0.85;;
36445;SDS011;22472;50.848;-1.216;2023-12-20T10:20:05;10.32;;;1.33;;
36445;SDS011;22472;50.848;-1.216;2023-12-20T10:22:35;7.60;;;1.00;;
36445;SDS011;22472;50.848;-1.216;2023-12-20T10:25:04;11.05;;;1.00;;
36445;SDS011;22472;50.848;-1.216;2023-12-20T10:27:31;11.85;;;1.50;;
36445;SDS011;22472;50.848;-1.216;2023-12-20T10:29:59;9.27;;;1.30;;
36445;SDS011;22472;50.848;-1.216;2023-12-20T10:32:27;16.95;;;1.48;;
36445;SDS011;22472;50.848;-1.216;2023-12-20T10:34:54;11.38;;;1.70;;
36445;SDS011;22472;50.848;-1.216;2023-12-20T10:37:23;15.10;;;1.60;;
36445;SDS011;22472;50.848;-1.216;2023-12-20T10:39:51;11.93;;;1.27;;
36445;SDS011;22472;50.848;-1.216;2023-12-20T10:42:21;9.65;;;1.13;;
36445;SDS011;22472;50.848;-1.216;2023-12-20T10:44:48;8.98;;;1.20;;
36445;SDS011;22472;50.848;-1.216;2023-12-20T10:47:16;9.68;;;1.20;;
36445;SDS011;22472;50.848;-1.216;2023-12-20T10:49:44;7.30;;;1.08;;
36445;SDS011;22472;50.848;-1.216;2023-12-20T10:52:12;13.85;;;1.27;;
36445;SDS011;22472;50.848;-1.216;2023-12-20T10:54:40;9.43;;;1.33;;
36445;SDS011;22472;50.848;-1.216;2023-12-20T10:57:08;7.03;;;0.90;;
36445;SDS011;22472;50.848;-1.216;2023-12-20T10:59:36;10.18;;;0.85;;
36445;SDS011;22472;50.848;-1.216;2023-12-20T11:02:04;8.25;;;1.00;;
36445;SDS011;22472;50.848;-1.216;2023-12-20T11:04:34;11.18;;;1.02;;
36445;SDS011;22472;50.848;-1.216;2023-12-20T11:07:15;8.80;;;1.20;;
36445;SDS011;22472;50.848;-1.216;2023-12-20T11:09:47;10.82;;;1.45;;
36445;SDS011;22472;50.848;-1.216;2023-12-20T11:12:17;11.15;;;1.27;;
36445;SDS011;22472;50.848;-1.216;2023-12-20T11:14:46;11.13;;;1.20;;
36445;SDS011;22472;50.848;-1.216;2023-12-20T11:17:13;9.98;;;1.25;;
36445;SDS011;22472;50.848;-1.216;2023-12-20T11:22:29;8.65;;;1.02;;
36445;SDS011;22472;50.848;-1.216;2023-12-20T11:25:00;6.38;;;1.05;;
36445;SDS011;22472;50.848;-1.216;2023-12-20T11:27:29;9.02;;;0.90;;
36445;SDS011;22472;50.848;-1.216;2023-12-20T11:29:57;8.65;;;1.13;;
36445;SDS011;22472;50.848;-1.216;2023-12-20T11:32:28;9.00;;;1.10;;
36445;SDS011;22472;50.848;-1.216;2023-12-20T11:34:56;8.50;;;1.20;;
36445;SDS011;22472;50.848;-1.216;2023-12-20T11:37:28;6.82;;;0.80;;
36445;SDS011;22472;50.848;-1.216;2023-12-20T11:40:02;8.82;;;0.93;;
36445;SDS011;22472;50.848;-1.216;2023-12-20T11:42:32;6.05;;;0.75;;
36445;SDS011;22472;50.848;-1.216;2023-12-20T11:45:01;7.68;;;0.80;;
36445;SDS011;22472;50.848;-1.216;2023-12-20T11:47:29;6.38;;;0.80;;
36445;SDS011;22472;50.848;-1.216;2023-12-20T11:49:57;8.68;;;0.70;;
36445;SDS011;22472;50.848;-1.216;2023-12-20T11:52:25;5.50;;;0.65;;
36445;SDS011;22472;50.848;-1.216;2023-12-20T11:54:53;7.43;;;0.80;;
36445;SDS011;22472;50.848;-1.216;2023-12-20T11:57:21;9.38;;;0.82;;
36445;SDS011;22472;50.848;-1.216;2023-12-20T11:59:48;7.88;;;0.57;;
36445;SDS011;22472;50.848;-1.216;2023-12-20T12:02:16;7.43;;;0.50;;
36445;SDS011;22472;50.848;-1.216;2023-12-20T12:04:43;5.72;;;0.52;;
36445;SDS011;22472;50.848;-1.216;2023-12-20T12:07:10;7.10;;;0.70;;
36445;SDS011;22472;50.848;-1.216;2023-12-20T12:09:38;6.45;;;0.50;;
36445;SDS011;22472;50.848;-1.216;2023-12-20T12:12:05;6.78;;;0.45;;
36445;SDS011;22472;50.848;-1.216;2023-12-20T12:14:35;6.20;;;0.50;;
36445;SDS011;22472;50.848;-1.216;2023-12-20T12:17:02;5.75;;;0.60;;
36445;SDS011;22472;50.848;-1.216;2023-12-20T12:19:30;5.03;;;0.50;;
36445;SDS011;22472;50.848;-1.216;2023-12-20T12:22:06;6.60;;;0.60;;
36445;SDS011;22472;50.848;-1.216;2023-12-20T12:24:36;7.18;;;0.50;;
36445;SDS011;22472;50.848;-1.216;2023-12-20T12:27:05;7.75;;;1.02;;
36445;SDS011;22472;50.848;-1.216;2023-12-20T12:29:35;7.70;;;0.52;;
36445;SDS011;22472;50.848;-1.216;2023-12-20T12:32:04;6.07;;;0.80;;
36445;SDS011;22472;50.848;-1.216;2023-12-20T12:34:31;5.20;;;0.60;;
36445;SDS011;22472;50.848;-1.216;2023-12-20T12:36:59;6.95;;;0.47;;
36445;SDS011;22472;50.848;-1.216;2023-12-20T12:39:26;5.68;;;0.50;;
36445;SDS011;22472;50.848;-1.216;2023-12-20T12:41:55;5.00;;;0.70;;
36445;SDS011;22472;50.848;-1.216;2023-12-20T12:44:22;5.15;;;0.45;;
36445;SDS011;22472;50.848;-1.216;2023-12-20T12:46:51;5.57;;;0.68;;
36445;SDS011;22472;50.848;-1.216;2023-12-20T12:49:19;7.22;;;0.50;;
36445;SDS011;22472;50.848;-1.216;2023-12-20T12:51:47;5.70;;;0.68;;
36445;SDS011;22472;50.848;-1.216;2023-12-20T12:54:14;3.88;;;0.52;;
36445;SDS011;22472;50.848;-1.216;2023-12-20T12:56:43;7.85;;;0.70;;
36445;SDS011;22472;50.848;-1.216;2023-12-20T12:59:12;8.35;;;0.40;;
36445;SDS011;22472;50.848;-1.216;2023-12-20T13:01:39;4.10;;;0.40;;
36445;SDS011;22472;50.848;-1.216;2023-12-20T13:04:07;7.22;;;0.85;;
36445;SDS011;22472;50.848;-1.216;2023-12-20T13:06:35;7.85;;;1.10;;
36445;SDS011;22472;50.848;-1.216;2023-12-20T13:09:03;8.85;;;0.80;;
36445;SDS011;22472;50.848;-1.216;2023-12-20T13:11:30;6.75;;;1.10;;
36445;SDS011;22472;50.848;-1.216;2023-12-20T13:13:58;5.85;;;0.70;;
36445;SDS011;22472;50.848;-1.216;2023-12-20T13:16:25;7.03;;;0.85;;
36445;SDS011;22472;50.848;-1.216;2023-12-20T13:18:52;8.82;;;0.82;;
36445;SDS011;22472;50.848;-1.216;2023-12-20T13:21:21;7.78;;;0.90;;
36445;SDS011;22472;50.848;-1.216;2023-12-20T13:23:48;7.55;;;0.98;;
36445;SDS011;22472;50.848;-1.216;2023-12-20T13:26:15;8.25;;;0.80;;
36445;SDS011;22472;50.848;-1.216;2023-12-20T13:28:42;8.48;;;0.90;;
36445;SDS011;22472;50.848;-1.216;2023-12-20T13:31:10;8.40;;;0.60;;
36445;SDS011;22472;50.848;-1.216;2023-12-20T13:33:37;7.40;;;0.50;;
36445;SDS011;22472;50.848;-1.216;2023-12-20T13:36:06;4.75;;;0.65;;
36445;SDS011;22472;50.848;-1.216;2023-12-20T13:38:34;5.85;;;0.65;;
36445;SDS011;22472;50.848;-1.216;2023-12-20T13:41:02;5.88;;;0.60;;
36445;SDS011;22472;50.848;-1.216;2023-12-20T13:43:30;6.57;;;0.85;;
36445;SDS011;22472;50.848;-1.216;2023-12-20T13:45:57;4.85;;;0.40;;
36445;SDS011;22472;50.848;-1.216;2023-12-20T13:48:24;6.55;;;0.50;;
36445;SDS011;22472;50.848;-1.216;2023-12-20T13:50:52;6.88;;;0.63;;
36445;SDS011;22472;50.848;-1.216;2023-12-20T13:53:19;6.95;;;0.60;;
36445;SDS011;22472;50.848;-1.216;2023-12-20T13:55:48;5.55;;;0.57;;
36445;SDS011;22472;50.848;-1.216;2023-12-20T13:58:16;4.93;;;0.40;;
36445;SDS011;22472;50.848;-1.216;2023-12-20T14:00:43;6.70;;;0.80;;
36445;SDS011;22472;50.848;-1.216;2023-12-20T14:03:10;6.82;;;0.50;;
36445;SDS011;22472;50.848;-1.216;2023-12-20T14:05:37;7.60;;;0.57;;
36445;SDS011;22472;50.848;-1.216;2023-12-20T14:08:05;4.65;;;0.50;;
36445;SDS011;22472;50.848;-1.216;2023-12-20T14:10:32;6.25;;;0.40;;
36445;SDS011;22472;50.848;-1.216;2023-12-20T14:13:01;5.88;;;0.63;;
36445;SDS011;22472;50.848;-1.216;2023-12-20T14:15:28;4.55;;;0.38;;
36445;SDS011;22472;50.848;-1.216;2023-12-20T14:18:01;3.60;;;0.30;;
36445;SDS011;22472;50.848;-1.216;2023-12-20T14:20:28;4.22;;;0.30;;
36445;SDS011;22472;50.848;-1.216;2023-12-20T14:22:55;2.72;;;0.40;;
36445;SDS011;22472;50.848;-1.216;2023-12-20T14:25:22;4.32;;;0.50;;
36445;SDS011;22472;50.848;-1.216;2023-12-20T14:27:49;4.43;;;0.50;;
36445;SDS011;22472;50.848;-1.216;2023-12-20T14:30:18;1.80;;;0.20;;
36445;SDS011;22472;50.848;-1.216;2023-12-20T14:32:45;2.33;;;0.32;;
36445;SDS011;22472;50.848;-1.216;2023-12-20T14:35:13;2.55;;;0.30;;